Time;durP1;ratioP1;P1;durP2;ratioP2;P2;SDS_P1;SDS_P2;PMS_P1;PMS_P2;Temp;Humidity;BMP_temperature;BMP_pressure;BME280_temperature;BME280_humidity;BME280_pressure;Samples;Min_cycle;Max_cycle;Signal;HPM_P1;HPM_P2
2023/05/12 00:00:48;;;;;;;455.90;428.17;;;10.80;61.80;;;;;;5013640;28;20346;-74
2023/05/12 00:03:14;;;;;;;366.90;345.60;;;10.80;60.60;;;;;;5013202;28;20230;-73
2023/05/12 00:05:39;;;;;;;353.77;332.33;;;10.80;59.80;;;;;;5013446;28;20552;-74
2023/05/12 00:08:05;;;;;;;339.80;320.00;;;10.80;58.70;;;;;;5013470;28;20180;-73
2023/05/12 00:10:30;;;;;;;342.63;322.40;;;10.80;58.60;;;;;;5013424;28;20287;-73
2023/05/12 00:12:56;;;;;;;414.00;389.03;;;10.70;59.80;;;;;;5013169;28;20227;-73
2023/05/12 00:15:22;;;;;;;393.73;370.97;;;10.70;60.50;;;;;;5013339;28;20464;-74
2023/05/12 00:17:47;;;;;;;336.27;316.77;;;10.70;60.40;;;;;;5013342;28;20184;-73
2023/05/12 00:20:13;;;;;;;445.03;418.63;;;10.60;60.40;;;;;;5013229;28;20176;-74
2023/05/12 00:22:40;;;;;;;393.07;369.90;;;10.70;59.90;;;;;;5012789;28;20208;-74
2023/05/12 00:25:06;;;;;;;382.30;360.23;;;10.70;60.00;;;;;;5013261;28;20538;-75
2023/05/12 00:27:31;;;;;;;435.57;409.90;;;10.70;60.00;;;;;;5013149;28;20415;-74
2023/05/12 00:29:57;;;;;;;362.53;342.13;;;10.70;59.90;;;;;;5013032;28;20414;-74
2023/05/12 00:32:24;;;;;;;362.87;341.70;;;10.70;59.50;;;;;;5012697;28;20283;-73
2023/05/12 00:34:52;;;;;;;399.27;375.63;;;10.70;59.60;;;;;;5013104;28;20562;-74
2023/05/12 00:37:17;;;;;;;370.13;348.53;;;10.70;57.50;;;;;;5013135;28;20443;-73
2023/05/12 00:39:43;;;;;;;363.83;342.27;;;10.70;57.00;;;;;;5012685;28;20450;-74
2023/05/12 00:42:08;;;;;;;357.10;335.77;;;10.70;56.60;;;;;;5012842;28;20235;-74
2023/05/12 00:44:34;;;;;;;328.37;309.63;;;10.60;56.80;;;;;;5012844;28;20195;-73
2023/05/12 00:46:59;;;;;;;334.57;315.73;;;10.50;57.70;;;;;;5012828;28;20169;-74
2023/05/12 00:49:26;;;;;;;372.70;350.20;;;10.50;57.80;;;;;;5012786;28;20641;-74
2023/05/12 00:51:54;;;;;;;315.57;297.17;;;10.50;58.80;;;;;;5012384;28;20203;-74
2023/05/12 00:54:20;;;;;;;373.37;352.27;;;10.60;58.20;;;;;;5012737;28;20422;-74
2023/05/12 00:56:46;;;;;;;393.33;370.23;;;10.60;58.00;;;;;;5012638;28;20417;-74
2023/05/12 00:59:12;;;;;;;360.33;339.53;;;10.60;59.00;;;;;;5012624;28;20295;-74
2023/05/12 01:01:37;;;;;;;374.77;352.13;;;10.60;59.20;;;;;;5012089;28;20549;-74
2023/05/12 01:04:03;;;;;;;365.23;342.83;;;10.60;58.60;;;;;;5012490;28;20172;-74
2023/05/12 01:06:37;;;;;;;400.13;376.43;;;10.60;59.10;;;;;;5012411;28;20175;-74
2023/05/12 01:09:03;;;;;;;325.73;307.40;;;10.60;59.10;;;;;;5012344;28;20175;-74
2023/05/12 01:11:28;;;;;;;348.03;328.13;;;10.50;58.90;;;;;;5010849;28;20870;-74
2023/05/12 01:13:54;;;;;;;427.07;402.13;;;10.40;61.50;;;;;;5012079;28;20415;-74
2023/05/12 01:16:27;;;;;;;407.47;383.60;;;10.40;61.70;;;;;;5012220;28;20180;-74
2023/05/12 01:18:54;;;;;;;399.73;375.93;;;10.30;63.60;;;;;;5012288;28;20180;-73
2023/05/12 01:21:20;;;;;;;383.70;361.07;;;10.30;64.30;;;;;;5012126;28;20479;-74
2023/05/12 01:23:53;;;;;;;347.63;327.70;;;10.40;63.90;;;;;;5011846;28;20454;-74
2023/05/12 01:26:18;;;;;;;387.63;365.37;;;10.50;65.00;;;;;;5012166;28;20173;-74
2023/05/12 01:28:45;;;;;;;365.63;344.27;;;10.50;64.00;;;;;;5012115;28;20778;-73
2023/05/12 01:31:12;;;;;;;437.77;412.33;;;10.50;64.80;;;;;;5012062;28;20210;-73
2023/05/12 01:33:38;;;;;;;410.73;386.97;;;10.50;64.80;;;;;;5011817;28;20955;-73
2023/05/12 01:36:04;;;;;;;361.23;339.43;;;10.60;64.60;;;;;;5012122;28;20411;-74
2023/05/12 01:38:30;;;;;;;401.80;378.43;;;10.60;63.70;;;;;;5012163;28;20469;-74
2023/05/12 01:40:56;;;;;;;402.47;378.50;;;10.60;64.10;;;;;;5011887;28;20455;-73
2023/05/12 01:43:21;;;;;;;442.07;416.43;;;10.70;64.50;;;;;;5011907;28;20188;-73
2023/05/12 01:45:47;;;;;;;395.27;372.37;;;10.60;65.30;;;;;;5012116;28;20706;-73
2023/05/12 01:48:12;;;;;;;359.63;339.33;;;10.60;64.60;;;;;;5011945;28;20164;-74
2023/05/12 01:50:38;;;;;;;361.97;341.20;;;10.60;66.60;;;;;;5012242;28;20218;-73
2023/05/12 01:53:03;;;;;;;450.73;423.90;;;10.50;66.10;;;;;;5015714;28;20248;-74
2023/05/12 01:55:29;;;;;;;413.63;389.70;;;10.50;66.70;;;;;;5015875;28;20172;-73
2023/05/12 01:57:54;;;;;;;445.10;419.77;;;10.50;66.90;;;;;;5015727;28;20171;-73
2023/05/12 02:00:20;;;;;;;395.83;372.73;;;10.50;67.20;;;;;;5014597;28;20180;-73
2023/05/12 02:02:45;;;;;;;410.87;386.37;;;10.50;66.60;;;;;;5015623;28;20266;-72
2023/05/12 02:05:11;;;;;;;398.07;373.70;;;10.50;66.70;;;;;;5015727;28;20172;-73
2023/05/12 02:07:37;;;;;;;330.47;311.43;;;10.60;66.40;;;;;;5015749;28;20182;-72
2023/05/12 02:10:02;;;;;;;417.90;393.43;;;10.60;65.90;;;;;;5015554;28;20182;-72
2023/05/12 02:12:28;;;;;;;342.97;323.47;;;10.60;65.40;;;;;;5015542;28;20211;-72
2023/05/12 02:14:53;;;;;;;391.37;369.87;;;10.70;65.30;;;;;;5015626;28;20263;-72
2023/05/12 02:17:19;;;;;;;331.23;312.17;;;10.70;64.40;;;;;;5015471;28;20211;-73
2023/05/12 02:19:45;;;;;;;386.10;363.90;;;10.80;63.60;;;;;;5015579;28;20370;-72
2023/05/12 02:22:10;;;;;;;362.87;342.70;;;10.90;63.70;;;;;;5015005;28;20500;-72
2023/05/12 02:24:36;;;;;;;383.73;360.30;;;10.80;64.20;;;;;;5015294;28;20176;-72
2023/05/12 02:27:01;;;;;;;419.33;394.83;;;10.80;67.00;;;;;;5015221;28;20207;-72
2023/05/12 02:29:27;;;;;;;448.93;422.33;;;10.90;67.80;;;;;;5015259;28;20166;-73
2023/05/12 02:31:52;;;;;;;384.20;361.10;;;10.90;67.40;;;;;;5014880;28;20745;-72
2023/05/12 02:34:18;;;;;;;405.83;382.07;;;11.00;67.70;;;;;;5015270;28;20184;-72
2023/05/12 02:36:44;;;;;;;400.53;378.67;;;10.90;69.10;;;;;;5015205;28;20183;-72
2023/05/12 02:39:09;;;;;;;419.77;395.33;;;10.90;71.30;;;;;;5015026;28;20180;-72
2023/05/12 02:41:35;;;;;;;376.47;353.57;;;;;;;;;;5014683;28;20200;-72
2023/05/12 02:44:01;;;;;;;362.23;341.20;;;11.00;50.70;;;;;;5013672;28;20203;-72
2023/05/12 02:46:26;;;;;;;343.33;321.83;;;11.00;52.20;;;;;;5014975;28;20411;-72
2023/05/12 02:48:52;;;;;;;403.63;378.87;;;10.80;52.20;;;;;;5015041;28;20176;-71
2023/05/12 02:51:17;;;;;;;434.77;407.80;;;10.70;53.70;;;;;;5015027;28;20177;-73
2023/05/12 02:53:43;;;;;;;379.27;357.07;;;10.70;52.70;;;;;;5014483;28;20199;-73
2023/05/12 02:56:08;;;;;;;390.90;367.60;;;10.70;53.60;;;;;;5015101;28;20246;-73
2023/05/12 02:58:34;;;;;;;391.63;368.13;;;10.70;53.10;;;;;;5014739;28;20555;-72
2023/05/12 03:00:59;;;;;;;377.20;355.00;;;10.70;53.70;;;;;;5014692;28;20207;-72
2023/05/12 03:03:25;;;;;;;363.33;342.37;;;10.80;53.50;;;;;;5013026;28;20207;-73
2023/05/12 03:05:52;;;;;;;399.13;375.17;;;10.80;54.00;;;;;;5014700;28;20176;-73
2023/05/12 03:08:17;;;;;;;402.30;378.47;;;10.90;52.10;;;;;;5014730;28;20180;-73
2023/05/12 03:10:43;;;;;;;356.27;335.47;;;10.90;51.40;;;;;;5014516;28;20415;-73
2023/05/12 03:13:08;;;;;;;403.90;380.40;;;11.00;52.00;;;;;;5014198;28;20326;-73
2023/05/12 03:15:35;;;;;;;373.87;351.93;;;11.00;51.30;;;;;;5014604;28;20222;-74
2023/05/12 03:18:01;;;;;;;325.40;305.53;;;11.00;51.80;;;;;;5014470;28;20173;-73
2023/05/12 03:20:26;;;;;;;390.60;366.50;;;11.10;50.90;;;;;;5014374;28;20415;-73
2023/05/12 03:22:52;;;;;;;355.07;333.53;;;11.00;50.70;;;;;;5013920;28;20203;-73
2023/05/12 03:25:18;;;;;;;350.90;330.93;;;11.10;50.90;;;;;;5014191;28;20182;-73
2023/05/12 03:27:43;;;;;;;395.87;372.90;;;11.20;49.70;;;;;;5014235;28;20586;-73
2023/05/12 03:30:09;;;;;;;329.93;310.63;;;11.20;48.60;;;;;;5014271;28;20207;-73
2023/05/12 03:32:37;;;;;;;406.90;382.10;;;11.20;48.10;;;;;;5007617;28;20225;-73
2023/05/12 03:35:04;;;;;;;414.27;389.43;;;11.20;48.40;;;;;;5003372;28;20416;-73
2023/05/12 03:37:29;;;;;;;385.17;361.57;;;11.20;48.90;;;;;;5003692;28;20420;-73
2023/05/12 03:39:55;;;;;;;343.40;322.97;;;11.10;49.10;;;;;;5004776;28;20488;-73
2023/05/12 03:42:22;;;;;;;382.97;360.50;;;11.10;48.60;;;;;;5002589;28;20635;-73
2023/05/12 03:44:49;;;;;;;375.30;352.33;;;11.10;48.60;;;;;;5003642;28;20181;-73
2023/05/12 03:47:15;;;;;;;352.63;329.80;;;11.10;49.10;;;;;;5004691;28;20428;-73
2023/05/12 03:49:40;;;;;;;369.03;347.07;;;11.10;48.20;;;;;;4997142;28;20442;-73
2023/05/12 03:52:06;;;;;;;367.00;344.97;;;11.10;48.90;;;;;;4993909;28;20204;-70
2023/05/12 03:54:31;;;;;;;354.20;333.87;;;11.00;49.30;;;;;;4994375;28;20177;-70
2023/05/12 03:56:57;;;;;;;372.40;349.87;;;11.00;49.80;;;;;;4994455;28;20654;-71
2023/05/12 03:59:22;;;;;;;362.83;340.23;;;11.00;49.30;;;;;;4994404;28;20585;-71
2023/05/12 04:01:48;;;;;;;359.03;337.47;;;11.00;49.70;;;;;;4993893;28;20263;-70
2023/05/12 04:04:13;;;;;;;368.83;345.97;;;11.00;49.60;;;;;;4994225;28;20178;-71
2023/05/12 04:06:39;;;;;;;401.60;376.97;;;11.00;49.60;;;;;;4994344;28;20729;-70
2023/05/12 04:09:04;;;;;;;361.03;340.20;;;10.90;50.50;;;;;;4994224;28;20255;-70
2023/05/12 04:11:30;;;;;;;405.40;382.60;;;10.90;50.40;;;;;;4994016;28;20271;-71
2023/05/12 04:13:55;;;;;;;376.17;352.43;;;10.90;50.80;;;;;;4993896;28;20192;-70
2023/05/12 04:16:21;;;;;;;357.63;335.30;;;11.00;49.50;;;;;;4994336;28;20197;-71
2023/05/12 04:18:48;;;;;;;366.70;345.53;;;10.90;49.90;;;;;;4994298;28;20536;-70
2023/05/12 04:21:13;;;;;;;369.63;348.03;;;10.90;52.10;;;;;;4994007;28;20212;-71
2023/05/12 04:23:39;;;;;;;385.43;362.10;;;11.00;51.00;;;;;;4992382;28;20448;-71
2023/05/12 04:26:05;;;;;;;371.87;350.37;;;11.00;50.20;;;;;;4994301;28;20176;-71
2023/05/12 04:28:30;;;;;;;352.17;331.73;;;11.10;49.90;;;;;;4994032;28;20412;-71
2023/05/12 04:31:02;;;;;;;332.83;312.00;;;11.10;49.90;;;;;;4993985;28;20180;-75
2023/05/12 04:33:28;;;;;;;362.90;342.23;;;11.10;48.80;;;;;;5029033;23;20236;-70
2023/05/12 04:35:57;;;;;;;393.77;369.97;;;11.00;50.40;;;;;;5014003;28;20924;-69
2023/05/12 04:38:23;;;;;;;351.87;330.33;;;11.00;50.40;;;;;;5013676;28;20174;-71
2023/05/12 04:40:48;;;;;;;393.97;369.27;;;11.00;50.50;;;;;;5029004;28;20976;-70
2023/05/12 04:43:14;;;;;;;349.80;327.30;;;11.10;50.30;;;;;;5012200;28;20205;-70
2023/05/12 04:45:40;;;;;;;388.17;365.40;;;11.20;49.00;;;;;;5013626;28;20178;-70
2023/05/12 04:48:05;;;;;;;356.87;336.60;;;11.20;48.70;;;;;;5029175;28;20271;-70
2023/05/12 04:50:31;;;;;;;402.47;378.63;;;11.30;47.50;;;;;;5029113;28;20177;-70
2023/05/12 04:52:57;;;;;;;415.90;390.50;;;11.30;47.70;;;;;;5012850;28;20450;-70
2023/05/12 04:55:22;;;;;;;379.13;356.83;;;11.30;47.50;;;;;;5014522;28;20638;-70
2023/05/12 04:57:48;;;;;;;333.23;313.83;;;11.30;48.60;;;;;;5015777;28;20184;-70
2023/05/12 05:00:14;;;;;;;335.33;314.70;;;11.50;46.60;;;;;;5037496;28;20186;-71
2023/05/12 05:02:40;;;;;;;378.00;355.20;;;11.50;46.00;;;;;;5014240;28;20235;-70
2023/05/12 05:05:06;;;;;;;363.63;342.27;;;11.60;46.20;;;;;;5013313;28;20778;-71
2023/05/12 05:07:31;;;;;;;399.83;375.53;;;11.70;44.10;;;;;;5013193;28;20895;-70
2023/05/12 05:09:57;;;;;;;396.50;372.90;;;11.70;43.80;;;;;;5011957;28;20561;-70
2023/05/12 05:12:23;;;;;;;369.93;347.73;;;11.80;42.90;;;;;;5012627;28;20477;-70
2023/05/12 05:14:48;;;;;;;384.17;360.30;;;11.90;43.00;;;;;;5027975;28;20588;-70
2023/05/12 05:17:14;;;;;;;379.37;357.40;;;12.00;42.00;;;;;;5012788;28;20437;-70
2023/05/12 05:19:40;;;;;;;414.57;389.20;;;11.90;41.70;;;;;;5027765;28;20191;-70
2023/05/12 05:22:05;;;;;;;383.30;359.97;;;11.90;43.00;;;;;;5027288;28;20265;-70
2023/05/12 05:24:31;;;;;;;404.20;379.93;;;12.00;43.10;;;;;;5012643;28;20180;-70
2023/05/12 05:26:56;;;;;;;357.93;336.67;;;12.10;41.60;;;;;;5027068;28;20222;-70
2023/05/12 05:29:22;;;;;;;440.67;413.87;;;12.20;40.80;;;;;;5012538;28;20191;-71
2023/05/12 05:31:47;;;;;;;408.10;384.67;;;12.10;40.00;;;;;;5012587;28;20191;-71
2023/05/12 05:34:13;;;;;;;431.90;405.20;;;12.20;40.60;;;;;;5012467;28;20258;-68
2023/05/12 05:36:39;;;;;;;410.50;386.33;;;12.30;39.20;;;;;;5012517;28;20188;-70
2023/05/12 05:39:04;;;;;;;422.23;397.80;;;12.30;39.40;;;;;;5012299;28;20660;-71
2023/05/12 05:41:30;;;;;;;453.70;426.90;;;12.40;37.70;;;;;;5012115;28;20211;-69
2023/05/12 05:43:55;;;;;;;443.23;417.23;;;12.40;38.30;;;;;;5012357;28;20272;-70
2023/05/12 05:46:21;;;;;;;490.03;461.67;;;12.50;37.70;;;;;;5027523;28;20188;-70
2023/05/12 05:48:47;;;;;;;540.53;508.30;;;12.50;36.60;;;;;;5027269;28;20176;-70
2023/05/12 05:51:12;;;;;;;408.70;384.30;;;12.50;37.30;;;;;;5012076;28;20181;-71
2023/05/12 05:53:38;;;;;;;380.37;357.30;;;12.50;37.50;;;;;;5011886;28;20497;-70
2023/05/12 05:56:04;;;;;;;424.13;399.33;;;12.60;37.10;;;;;;5012279;28;20262;-70
2023/05/12 05:58:30;;;;;;;358.17;336.20;;;12.70;37.50;;;;;;5027452;28;20430;-70
2023/05/12 06:00:55;;;;;;;482.90;455.03;;;12.70;36.20;;;;;;5010988;28;20816;-70
2023/05/12 06:03:22;;;;;;;415.23;390.10;;;12.70;35.30;;;;;;5011821;28;20196;-70
2023/05/12 06:05:48;;;;;;;404.03;379.60;;;12.60;35.90;;;;;;5012340;28;20212;-70
2023/05/12 06:08:13;;;;;;;464.00;436.70;;;12.80;35.90;;;;;;5027288;28;20428;-70
2023/05/12 06:10:42;;;;;;;441.47;414.13;;;12.80;35.40;;;;;;5012083;28;20418;-70
2023/05/12 06:13:08;;;;;;;370.77;347.17;;;12.70;34.50;;;;;;5011893;28;20658;-72
2023/05/12 06:15:34;;;;;;;528.20;494.37;;;12.70;35.30;;;;;;5027218;28;20438;-71
2023/05/12 06:17:59;;;;;;;433.33;408.57;;;12.80;33.80;;;;;;5012012;28;20187;-72
2023/05/12 06:20:25;;;;;;;472.17;443.13;;;13.00;33.60;;;;;;5010571;28;20391;-70
2023/05/12 06:22:51;;;;;;;421.67;395.87;;;13.20;32.80;;;;;;5011791;28;20701;-74
2023/05/12 06:25:16;;;;;;;444.50;416.10;;;13.30;33.00;;;;;;5012525;28;20209;-74
2023/05/12 06:27:42;;;;;;;519.83;487.57;;;13.50;31.20;;;;;;5012060;28;20176;-70
2023/05/12 06:30:08;;;;;;;484.73;457.70;;;13.60;30.00;;;;;;5011818;28;20231;-71
2023/05/12 06:32:34;;;;;;;527.53;496.73;;;13.90;29.40;;;;;;5011553;28;20579;-71
2023/05/12 06:35:00;;;;;;;605.60;567.77;;;14.10;28.50;;;;;;5011958;28;20418;-72
2023/05/12 06:37:25;;;;;;;567.30;528.93;;;14.40;26.70;;;;;;5013119;28;20180;-70
2023/05/12 06:39:51;;;;;;;455.27;427.20;;;14.50;25.70;;;;;;5012349;28;20602;-72
2023/05/12 06:42:16;;;;;;;481.87;451.77;;;14.40;25.60;;;;;;5011169;28;20211;-71
2023/05/12 06:44:45;;;;;;;500.23;470.90;;;14.10;26.10;;;;;;5009886;28;20290;-69
2023/05/12 06:47:11;;;;;;;536.63;504.93;;;13.90;27.40;;;;;;5011354;28;20191;-69
2023/05/12 06:49:37;;;;;;;532.70;498.37;;;13.90;27.80;;;;;;5010791;28;20593;-70
2023/05/12 06:52:04;;;;;;;494.40;464.20;;;13.80;27.30;;;;;;5010732;28;20186;-70
2023/05/12 06:54:29;;;;;;;607.00;567.87;;;13.90;27.40;;;;;;5011168;28;20422;-74
2023/05/12 06:56:55;;;;;;;471.70;442.50;;;13.90;27.70;;;;;;5008591;28;20427;-70
2023/05/12 06:59:21;;;;;;;589.83;552.40;;;14.20;27.40;;;;;;5013772;28;20184;-72
2023/05/12 07:01:46;;;;;;;542.80;509.37;;;14.40;25.60;;;;;;5014311;28;20207;-68
2023/05/12 07:04:12;;;;;;;604.93;566.80;;;14.70;24.60;;;;;;5014247;28;20212;-68
2023/05/12 07:06:37;;;;;;;593.13;556.63;;;15.20;23.70;;;;;;5017926;28;20183;-69
2023/05/12 07:09:03;;;;;;;642.53;600.90;;;15.60;22.20;;;;;;4996726;28;20196;-68
2023/05/12 07:11:28;;;;;;;518.83;487.23;;;15.80;20.60;;;;;;5012251;28;20207;-68
2023/05/12 07:13:54;;;;;;;540.20;505.20;;;15.50;22.00;;;;;;5012715;28;20217;-68
2023/05/12 07:16:20;;;;;;;477.47;448.80;;;15.70;21.30;;;;;;5013990;28;20191;-68
2023/05/12 07:18:46;;;;;;;471.67;444.73;;;16.00;20.50;;;;;;5014625;28;20633;-69
2023/05/12 07:21:12;;;;;;;535.37;502.57;;;16.10;20.80;;;;;;5013392;28;20215;-68
2023/05/12 07:23:38;;;;;;;567.67;532.40;;;16.20;20.20;;;;;;5014202;28;20274;-69
2023/05/12 07:26:05;;;;;;;611.50;572.37;;;16.50;20.50;;;;;;5014453;28;20446;-68
2023/05/12 07:28:35;;;;;;;583.23;546.37;;;16.40;20.00;;;;;;5006928;28;20943;-69
2023/05/12 07:31:02;;;;;;;635.63;593.77;;;16.10;20.00;;;;;;5009696;28;20430;-69
2023/05/12 07:33:28;;;;;;;584.87;546.50;;;16.30;20.10;;;;;;5010355;28;20469;-68
2023/05/12 07:35:54;;;;;;;749.23;701.23;;;16.20;20.30;;;;;;5010542;28;20518;-69
2023/05/12 07:38:20;;;;;;;608.13;570.13;;;16.20;20.00;;;;;;5010360;28;20454;-70
2023/05/12 07:40:45;;;;;;;548.20;514.70;;;16.60;19.50;;;;;;5010912;28;20191;-69
2023/05/12 07:43:11;;;;;;;644.73;602.50;;;17.00;17.50;;;;;;5008534;28;20573;-69
2023/05/12 07:45:36;;;;;;;559.17;523.60;;;16.50;18.10;;;;;;5008821;28;20637;-71
2023/05/12 07:48:02;;;;;;;556.57;519.73;;;16.50;18.50;;;;;;5010302;28;20192;-69
2023/05/12 07:50:28;;;;;;;646.83;604.30;;;17.20;17.30;;;;;;5012218;28;20183;-69
2023/05/12 07:52:54;;;;;;;602.03;563.20;;;17.90;15.90;;;;;;5014332;28;20257;-69
2023/05/12 07:55:21;;;;;;;550.30;516.67;;;18.60;13.60;;;;;;5014824;28;20176;-68
2023/05/12 07:57:48;;;;;;;680.17;634.17;;;20.00;12.10;;;;;;5014770;28;20230;-72
2023/05/12 08:00:14;;;;;;;645.43;602.60;;;20.70;9.80;;;;;;5013820;28;20450;-69
2023/05/12 08:02:40;;;;;;;708.67;659.20;;;20.30;9.20;;;;;;5013393;28;20493;-70
2023/05/12 08:05:10;;;;;;;601.53;564.83;;;20.20;10.70;;;;;;5013906;28;20894;-70
2023/05/12 08:07:37;;;;;;;670.47;625.47;;;19.40;9.90;;;;;;5012273;28;20439;-71
2023/05/12 08:10:04;;;;;;;926.17;852.47;;;18.90;10.70;;;;;;5013665;28;20411;-70
2023/05/12 08:12:29;;;;;;;857.07;791.73;;;18.70;10.70;;;;;;5011931;28;20443;-70
2023/05/12 08:14:55;;;;;;;704.90;657.13;;;18.70;11.20;;;;;;5013538;28;20441;-70
2023/05/12 08:17:21;;;;;;;742.47;689.13;;;18.80;11.30;;;;;;5013700;28;20210;-70
2023/05/12 08:19:46;;;;;;;736.67;686.63;;;19.40;11.70;;;;;;5012190;28;20820;-71
2023/05/12 08:22:12;;;;;;;733.17;680.30;;;19.60;10.20;;;;;;5011798;28;20247;-70
2023/05/12 08:24:37;;;;;;;714.10;662.13;;;19.60;9.80;;;;;;5013433;28;20184;-70
2023/05/12 08:27:03;;;;;;;703.83;653.93;;;18.80;10.80;;;;;;5012168;28;20215;-70
2023/05/12 08:29:29;;;;;;;562.53;528.73;;;18.10;11.70;;;;;;5013601;28;20226;-71
2023/05/12 08:31:56;;;;;;;664.43;617.73;;;18.10;12.40;;;;;;5013085;28;20187;-70
2023/05/12 08:34:22;;;;;;;698.93;650.33;;;18.00;13.30;;;;;;5013457;28;20191;-70
2023/05/12 08:36:48;;;;;;;733.10;680.77;;;18.30;12.50;;;;;;5013400;28;20422;-70
2023/05/12 08:39:14;;;;;;;704.70;655.30;;;18.30;12.20;;;;;;5013303;28;20415;-70
2023/05/12 08:41:46;;;;;;;727.63;674.63;;;18.30;10.90;;;;;;5012679;28;20208;-70
2023/05/12 08:44:12;;;;;;;669.27;622.37;;;17.90;12.40;;;;;;5013037;28;20612;-70
2023/05/12 08:46:38;;;;;;;770.50;715.93;;;17.40;12.70;;;;;;5012959;28;20447;-70
2023/05/12 08:49:05;;;;;;;702.07;654.53;;;17.00;14.10;;;;;;5013060;28;20509;-70
2023/05/12 08:51:31;;;;;;;636.00;592.53;;;17.00;14.50;;;;;;5012755;28;20422;-70
2023/05/12 08:53:57;;;;;;;744.93;691.00;;;17.10;14.20;;;;;;5012856;28;20470;-70
2023/05/12 08:56:24;;;;;;;659.50;615.07;;;17.30;14.70;;;;;;5012812;28;20423;-69
2023/05/12 08:58:50;;;;;;;790.57;732.90;;;17.50;13.80;;;;;;5012920;28;20493;-70
2023/05/12 09:01:16;;;;;;;683.60;634.53;;;17.60;13.90;;;;;;5011423;28;20462;-70
2023/05/12 09:03:43;;;;;;;705.80;654.23;;;17.60;14.00;;;;;;5012339;28;20796;-69
2023/05/12 09:06:10;;;;;;;836.50;773.83;;;17.60;13.40;;;;;;5011402;28;20908;-69
2023/05/12 09:08:36;;;;;;;796.13;736.73;;;18.00;13.60;;;;;;5012670;28;20465;-70
2023/05/12 09:11:02;;;;;;;897.47;826.83;;;18.40;12.50;;;;;;5011170;28;21055;-69
2023/05/12 09:13:48;;;;;;;766.87;709.77;;;18.70;11.90;;;;;;5010834;28;20468;-70
2023/05/12 09:16:16;;;;;;;664.70;619.77;;;18.80;11.50;;;;;;5012439;28;20423;-71
2023/05/12 09:18:53;;;;;;;723.50;673.00;;;19.00;10.70;;;;;;5012297;28;20430;-70
2023/05/12 09:21:19;;;;;;;797.60;737.60;;;19.00;11.40;;;;;;5010926;28;20462;-70
2023/05/12 09:24:05;;;;;;;736.17;685.43;;;19.20;10.40;;;;;;5012364;28;20431;-69
2023/05/12 09:26:44;;;;;;;708.13;659.20;;;19.10;10.80;;;;;;5012379;28;20900;-69
2023/05/12 09:29:10;;;;;;;702.10;652.83;;;19.20;10.60;;;;;;5011192;28;20419;-69
2023/05/12 09:31:36;;;;;;;889.37;817.17;;;19.20;10.30;;;;;;5010878;28;20837;-70
2023/05/12 09:34:09;;;;;;;855.73;788.67;;;18.60;11.10;;;;;;5010775;28;20462;-69
2023/05/12 09:36:34;;;;;;;706.73;656.37;;;18.00;12.00;;;;;;5011015;28;20434;-70
2023/05/12 09:39:03;;;;;;;809.03;746.13;;;18.20;12.50;;;;;;5012218;28;20473;-69
2023/05/12 09:41:35;;;;;;;841.27;775.00;;;18.10;12.60;;;;;;5012109;28;20603;-70
2023/05/12 09:44:01;;;;;;;730.53;677.03;;;18.00;12.00;;;;;;5012171;28;20435;-70
2023/05/12 09:46:27;;;;;;;923.57;850.60;;;17.90;12.40;;;;;;5011949;28;20429;-70
2023/05/12 09:48:56;;;;;;;829.43;766.50;;;17.90;12.60;;;;;;5011955;28;20411;-70
2023/05/12 09:51:22;;;;;;;604.57;563.80;;;18.10;12.40;;;;;;5012070;28;20656;-69
2023/05/12 09:53:48;;;;;;;812.73;750.53;;;18.20;12.00;;;;;;5011822;28;20541;-69
2023/05/12 09:56:15;;;;;;;630.97;588.43;;;18.50;11.80;;;;;;5012136;28;20441;-69
2023/05/12 09:58:46;;;;;;;760.60;704.60;;;18.60;11.10;;;;;;5011984;28;20415;-69
2023/05/12 10:01:15;;;;;;;706.60;655.80;;;18.50;10.10;;;;;;5010589;28;20470;-70
2023/05/12 10:03:43;;;;;;;713.10;662.27;;;18.60;10.50;;;;;;5011633;28;20434;-69
2023/05/12 10:06:13;;;;;;;745.70;688.80;;;18.80;10.50;;;;;;5010746;28;20419;-70
2023/05/12 10:08:54;;;;;;;740.87;687.27;;;19.00;10.50;;;;;;5012000;28;20417;-70
2023/05/12 10:11:21;;;;;;;722.30;668.70;;;18.90;9.90;;;;;;5012072;28;20418;-69
2023/05/12 10:13:47;;;;;;;654.57;609.80;;;18.80;10.10;;;;;;5014255;28;20610;-70
2023/05/12 10:16:13;;;;;;;858.87;791.40;;;18.70;10.00;;;;;;5015720;28;20419;-70
2023/05/12 10:18:41;;;;;;;713.67;662.23;;;18.80;9.70;;;;;;5015817;28;20419;-70
2023/05/12 10:21:10;;;;;;;942.03;865.47;;;18.80;9.70;;;;;;5015703;28;20700;-70
2023/05/12 10:23:38;;;;;;;786.07;726.60;;;18.90;9.70;;;;;;5015137;28;20435;-70
2023/05/12 10:26:05;;;;;;;861.17;794.90;;;19.20;9.00;;;;;;5015552;28;20580;-70
2023/05/12 10:28:30;;;;;;;722.10;669.23;;;19.10;8.90;;;;;;5015781;28;20406;-69
2023/05/12 10:30:57;;;;;;;636.33;592.43;;;19.00;9.50;;;;;;5015615;28;20430;-70
2023/05/12 10:33:23;;;;;;;647.23;600.97;;;18.70;10.40;;;;;;5015952;28;20216;-69
2023/05/12 10:35:51;;;;;;;783.37;726.07;;;18.50;10.60;;;;;;5014799;28;20459;-68
2023/05/12 10:38:18;;;;;;;615.37;572.10;;;18.10;10.80;;;;;;5015724;28;20417;-69
2023/05/12 10:40:58;;;;;;;647.07;601.07;;;18.10;11.00;;;;;;5015591;28;20427;-68
2023/05/12 10:43:31;;;;;;;791.10;729.77;;;17.80;11.70;;;;;;5015065;28;20901;-69
2023/05/12 10:46:09;;;;;;;641.90;600.43;;;17.50;12.70;;;;;;5015595;28;20908;-69
2023/05/12 10:48:37;;;;;;;651.23;605.43;;;17.20;12.90;;;;;;5015637;28;20970;-69
2023/05/12 10:51:10;;;;;;;858.33;789.03;;;17.00;14.20;;;;;;5015870;28;20868;-69
2023/05/12 10:53:37;;;;;;;619.70;577.17;;;16.70;14.90;;;;;;5015009;28;20434;-69
2023/05/12 10:56:04;;;;;;;715.47;664.53;;;16.50;16.70;;;;;;5015254;28;20419;-69
2023/05/12 10:58:30;;;;;;;768.87;714.07;;;16.00;18.20;;;;;;5015433;28;20883;-70
2023/05/12 11:01:04;;;;;;;755.33;702.43;;;15.70;21.70;;;;;;5015156;28;20451;-69
2023/05/12 11:03:30;;;;;;;670.90;624.90;;;15.50;23.60;;;;;;5015116;28;20419;-69
2023/05/12 11:06:17;;;;;;;854.37;794.03;;;15.40;25.20;;;;;;5015218;28;20411;-69
2023/05/12 11:08:44;;;;;;;715.00;666.53;;;15.40;26.30;;;;;;5013895;28;20498;-69
2023/05/12 11:11:09;;;;;;;870.60;808.60;;;15.30;26.50;;;;;;5015123;28;20425;-69
2023/05/12 11:13:35;;;;;;;586.93;550.47;;;15.40;26.30;;;;;;5014780;28;20975;-69
2023/05/12 11:16:01;;;;;;;601.13;563.60;;;15.40;25.10;;;;;;5015032;28;20634;-70
2023/05/12 11:18:27;;;;;;;737.73;686.10;;;15.70;25.90;;;;;;5015341;28;20583;-69
2023/05/12 11:20:52;;;;;;;534.53;502.13;;;16.00;25.30;;;;;;5015250;28;20646;-70
2023/05/12 11:23:31;;;;;;;693.47;648.17;;;16.40;22.70;;;;;;5014116;28;20215;-69
2023/05/12 11:25:56;;;;;;;682.10;637.73;;;16.80;19.60;;;;;;5013909;28;20200;-69
2023/05/12 11:28:22;;;;;;;749.73;699.67;;;17.40;19.30;;;;;;5014490;28;20457;-69
2023/05/12 11:30:51;;;;;;;603.43;564.93;;;17.80;16.80;;;;;;5015654;28;20511;-69
2023/05/12 11:33:21;;;;;;;534.20;504.30;;;18.20;16.80;;;;;;5015393;28;20208;-69
2023/05/12 11:35:47;;;;;;;664.70;619.37;;;18.30;16.10;;;;;;5015748;28;20496;-69
2023/05/12 11:38:23;;;;;;;753.17;699.00;;;18.20;15.30;;;;;;5014824;28;20477;-70
2023/05/12 11:40:49;;;;;;;649.60;605.50;;;18.20;16.30;;;;;;5015940;28;20407;-70
2023/05/12 11:43:19;;;;;;;790.37;731.20;;;18.50;16.60;;;;;;5015428;28;20823;-69
2023/05/12 11:45:44;;;;;;;879.63;815.27;;;18.50;15.50;;;;;;5013692;28;20423;-69
2023/05/12 11:48:12;;;;;;;786.13;728.03;;;18.40;15.70;;;;;;5015037;28;20414;-69
2023/05/12 11:50:43;;;;;;;607.07;568.33;;;18.70;16.00;;;;;;5015068;28;20634;-69
2023/05/12 11:53:13;;;;;;;896.43;829.80;;;18.70;16.00;;;;;;5014186;28;20433;-69
2023/05/12 11:55:55;;;;;;;852.37;787.43;;;18.60;16.70;;;;;;5014310;28;20437;-69
2023/05/12 11:58:26;;;;;;;605.63;565.93;;;18.60;16.20;;;;;;5014339;28;20493;-69
2023/05/12 12:00:52;;;;;;;856.10;792.47;;;18.20;15.30;;;;;;5014244;28;20532;-69
2023/05/12 12:03:19;;;;;;;764.30;709.47;;;18.00;15.20;;;;;;5014085;28;20920;-69
2023/05/12 12:05:57;;;;;;;794.97;738.37;;;18.60;15.60;;;;;;5014378;28;20418;-69